createdAt,value
2022-08-26T00:03:36.547Z,22.05
2022-08-26T00:06:03.633Z,22.04
2022-08-26T00:08:30.604Z,22.04
2022-08-26T00:10:57.717Z,22.04
2022-08-26T00:13:26.994Z,22.05
2022-08-26T00:15:54.204Z,21.99
2022-08-26T00:18:22.414Z,22.02
2022-08-26T00:20:50.238Z,21.98
2022-08-26T00:23:18.055Z,21.91
2022-08-26T00:25:45.874Z,21.88
2022-08-26T00:28:15.124Z,21.84
2022-08-26T00:30:52.097Z,21.82
2022-08-26T00:33:20.382Z,21.84
2022-08-26T00:35:48.214Z,21.84
2022-08-26T00:38:15.434Z,21.78
2022-08-26T00:40:51.424Z,21.81
2022-08-26T00:43:18.993Z,21.74
2022-08-26T00:45:58.262Z,21.79
2022-08-26T00:48:31.789Z,21.76
2022-08-26T00:51:07.002Z,21.75
2022-08-26T00:53:39.652Z,21.70
2022-08-26T00:56:36.472Z,21.59
2022-08-26T00:59:06.972Z,21.55
2022-08-26T01:01:34.925Z,21.56
2022-08-26T01:04:02.312Z,21.54
2022-08-26T01:06:29.705Z,21.37
2022-08-26T01:08:57.962Z,21.45
2022-08-26T01:11:25.815Z,21.46
2022-08-26T01:13:56.442Z,21.47
2022-08-26T01:16:25.083Z,21.44
2022-08-26T01:18:57.043Z,21.39
2022-08-26T01:21:54.902Z,21.37
2022-08-26T01:24:21.853Z,21.35
2022-08-26T01:26:49.373Z,21.39
2022-08-26T01:29:20.190Z,21.33
2022-08-26T01:31:51.912Z,21.33
2022-08-26T01:34:26.352Z,21.37
2022-08-26T01:37:01.611Z,21.27
2022-08-26T01:39:29.091Z,21.16
2022-08-26T01:41:58.376Z,21.13
2022-08-26T01:44:36.512Z,21.11
2022-08-26T01:47:04.958Z,21.08
2022-08-26T01:49:34.509Z,21.09
2022-08-26T01:52:05.554Z,21.15
2022-08-26T01:54:33.694Z,21.17
2022-08-26T01:57:01.987Z,21.17
2022-08-26T01:59:30.130Z,21.16
2022-08-26T02:01:57.752Z,21.22
2022-08-26T02:04:29.152Z,21.20
2022-08-26T02:06:57.431Z,21.16
2022-08-26T02:09:26.978Z,21.17
2022-08-26T02:11:54.987Z,21.14
2022-08-26T02:14:26.849Z,21.12
2022-08-26T02:16:55.586Z,21.12
2022-08-26T02:19:27.941Z,21.10
2022-08-26T02:21:55.904Z,21.07
2022-08-26T02:24:27.811Z,21.06
2022-08-26T02:26:57.512Z,20.98
2022-08-26T02:29:38.526Z,20.95
2022-08-26T02:32:08.549Z,20.85
2022-08-26T02:34:36.354Z,20.69
2022-08-26T02:37:10.113Z,20.51
2022-08-26T02:39:39.435Z,20.60
2022-08-26T02:42:06.554Z,20.56
2022-08-26T02:44:34.384Z,20.62
2022-08-26T02:47:01.791Z,20.71
2022-08-26T02:49:30.550Z,20.74
2022-08-26T02:51:57.954Z,20.76
2022-08-26T02:54:29.374Z,20.78
2022-08-26T02:56:56.874Z,20.83
2022-08-26T02:59:24.684Z,20.92
2022-08-26T03:01:56.004Z,20.93
2022-08-26T03:04:25.739Z,20.93
2022-08-26T03:06:53.677Z,20.94
2022-08-26T03:09:22.446Z,20.91
2022-08-26T03:11:51.784Z,20.93
2022-08-26T03:14:18.842Z,20.93
2022-08-26T03:16:48.483Z,20.92
2022-08-26T03:19:15.604Z,20.93
2022-08-26T03:21:45.213Z,20.94
2022-08-26T03:24:15.325Z,20.97
2022-08-26T03:26:52.911Z,20.97
2022-08-26T03:29:39.903Z,20.90
2022-08-26T03:32:07.034Z,20.81
2022-08-26T03:34:37.394Z,20.71
2022-08-26T03:37:05.862Z,20.57
2022-08-26T03:39:32.904Z,20.59
2022-08-26T03:42:00.158Z,20.63
2022-08-26T03:44:27.535Z,20.63
2022-08-26T03:46:54.741Z,20.65
2022-08-26T03:49:22.453Z,20.64
2022-08-26T03:51:50.058Z,20.68
2022-08-26T03:54:17.732Z,20.63
2022-08-26T03:56:46.549Z,20.57
2022-08-26T03:59:15.854Z,20.56
2022-08-26T04:01:42.890Z,20.50
2022-08-26T04:04:10.012Z,20.44
2022-08-26T04:06:44.747Z,20.49
2022-08-26T04:09:19.195Z,20.55
2022-08-26T04:11:47.444Z,20.59
2022-08-26T04:14:21.341Z,20.70
2022-08-26T04:16:49.229Z,20.79
2022-08-26T04:19:17.653Z,20.87
2022-08-26T04:21:46.763Z,20.93
2022-08-26T04:24:16.025Z,21.02
2022-08-26T04:26:44.886Z,21.10
2022-08-26T04:29:15.076Z,21.18
2022-08-26T04:31:42.781Z,21.28
2022-08-26T04:34:11.097Z,21.37
2022-08-26T04:36:38.722Z,21.53
2022-08-26T04:39:06.126Z,21.60
2022-08-26T04:41:34.125Z,21.83
2022-08-26T04:44:02.616Z,21.94
2022-08-26T04:46:29.931Z,22.14
2022-08-26T04:48:57.012Z,22.28
2022-08-26T04:51:28.278Z,22.38
2022-08-26T04:53:57.289Z,22.61
2022-08-26T04:56:30.475Z,22.74
2022-08-26T04:58:57.507Z,22.73
2022-08-26T05:01:24.997Z,22.74
2022-08-26T05:03:52.822Z,22.90
2022-08-26T05:06:20.755Z,23.05
2022-08-26T05:08:49.108Z,23.17
2022-08-26T05:11:16.117Z,23.25
2022-08-26T05:13:43.315Z,23.28
2022-08-26T05:16:12.938Z,23.41
2022-08-26T05:18:42.995Z,23.54
2022-08-26T05:21:30.920Z,23.62
2022-08-26T05:23:58.020Z,23.62
2022-08-26T05:26:27.062Z,23.70
2022-08-26T05:28:55.555Z,23.63
2022-08-26T05:31:25.334Z,23.83
2022-08-26T05:33:52.653Z,24.03
2022-08-26T05:36:22.338Z,24.11
2022-08-26T05:38:49.798Z,24.48
2022-08-26T05:41:24.981Z,24.69
2022-08-26T05:43:52.567Z,24.94
2022-08-26T05:46:19.896Z,25.09
2022-08-26T05:48:47.083Z,25.38
2022-08-26T05:51:15.250Z,25.67
2022-08-26T05:53:54.397Z,25.92
2022-08-26T05:56:27.927Z,25.90
2022-08-26T05:58:56.532Z,26.20
2022-08-26T06:01:27.724Z,26.61
2022-08-26T06:03:57.830Z,26.72
2022-08-26T06:06:48.189Z,27.09
2022-08-26T06:09:18.267Z,27.58
2022-08-26T06:11:45.574Z,27.87
2022-08-26T06:14:12.592Z,28.41
2022-08-26T06:16:43.915Z,28.54
2022-08-26T06:19:13.662Z,28.95
2022-08-26T06:21:45.085Z,29.35
2022-08-26T06:24:32.937Z,29.62
2022-08-26T06:27:05.782Z,29.68
2022-08-26T06:29:34.885Z,29.74
2022-08-26T06:32:04.230Z,29.57
2022-08-26T06:34:31.170Z,29.96
2022-08-26T06:37:06.571Z,30.40
2022-08-26T06:39:34.312Z,30.70
2022-08-26T06:42:03.140Z,30.95
2022-08-26T06:44:33.655Z,31.08
2022-08-26T06:47:00.936Z,31.18
2022-08-26T06:49:27.951Z,31.31
2022-08-26T06:52:00.495Z,31.44
2022-08-26T06:54:31.900Z,31.65
2022-08-26T06:56:59.148Z,31.81
2022-08-26T06:59:26.196Z,32.06
2022-08-26T07:01:54.967Z,32.10
2022-08-26T07:04:23.270Z,32.29
2022-08-26T07:06:52.709Z,32.43
2022-08-26T07:09:22.318Z,32.63
2022-08-26T07:11:49.877Z,32.66
2022-08-26T07:14:19.328Z,32.89
2022-08-26T07:16:51.948Z,32.92
2022-08-26T07:19:30.464Z,33.06
2022-08-26T07:22:03.942Z,33.10
2022-08-26T07:24:33.198Z,33.14
2022-08-26T07:27:03.857Z,33.36
2022-08-26T07:29:33.380Z,33.50
2022-08-26T07:32:01.958Z,33.54
2022-08-26T07:34:29.605Z,33.53
2022-08-26T07:36:57.231Z,33.64
2022-08-26T07:39:27.126Z,33.72
2022-08-26T07:41:54.383Z,33.68
2022-08-26T07:44:21.636Z,33.63
2022-08-26T07:46:52.329Z,33.83
2022-08-26T07:49:22.416Z,34.17
2022-08-26T07:51:50.053Z,34.26
2022-08-26T07:54:17.246Z,34.40
2022-08-26T07:56:47.117Z,34.50
2022-08-26T07:59:16.931Z,34.56
2022-08-26T08:01:45.811Z,34.66
2022-08-26T08:04:17.901Z,34.59
2022-08-26T08:06:46.006Z,34.09
2022-08-26T08:10:11.768Z,33.65
2022-08-26T08:13:01.251Z,33.97
2022-08-26T08:15:38.165Z,33.72
2022-08-26T08:18:15.835Z,33.67
2022-08-26T08:21:04.754Z,33.83
2022-08-26T08:26:52.126Z,34.19
2022-08-26T08:32:46.716Z,33.49
2022-08-26T08:35:17.217Z,33.83
2022-08-26T08:37:45.257Z,34.05
2022-08-26T08:44:14.695Z,33.73
2022-08-26T08:46:44.586Z,33.77
2022-08-26T08:49:14.047Z,33.63
2022-08-26T08:51:48.265Z,33.79
2022-08-26T08:54:15.506Z,33.92
2022-08-26T08:56:55.567Z,34.01
2022-08-26T09:03:46.044Z,34.02
2022-08-26T09:06:31.834Z,34.13
2022-08-26T09:09:09.921Z,34.24
2022-08-26T09:11:51.084Z,34.62
2022-08-26T09:14:23.835Z,34.82
2022-08-26T09:17:27.163Z,35.17
2022-08-26T09:20:29.654Z,34.78
2022-08-26T09:23:10.814Z,34.80
2022-08-26T09:26:05.165Z,34.88
2022-08-26T09:29:13.026Z,34.86
2022-08-26T09:31:46.373Z,34.97
2022-08-26T09:34:26.603Z,35.09
2022-08-26T09:37:11.924Z,34.77
2022-08-26T09:39:51.666Z,34.69
2022-08-26T09:42:45.612Z,34.46
2022-08-26T09:45:50.737Z,34.40
2022-08-26T09:48:37.052Z,34.81
2022-08-26T09:51:31.474Z,34.71
2022-08-26T10:57:04.313Z,35.04
2022-08-26T11:14:28.892Z,35.17
2022-08-26T11:17:00.936Z,34.82
2022-08-26T11:20:03.306Z,34.77
2022-08-26T11:31:07.281Z,33.07
2022-08-26T11:34:47.183Z,33.54
2022-08-26T11:41:31.064Z,33.82
2022-08-26T11:43:59.797Z,33.66
2022-08-26T11:46:31.727Z,33.89
2022-08-26T11:49:05.521Z,34.10
2022-08-26T11:51:48.298Z,34.02
2022-08-26T11:58:37.799Z,33.89
2022-08-26T12:01:09.916Z,33.92
2022-08-26T12:03:45.051Z,34.17
2022-08-26T12:06:23.558Z,34.02
2022-08-26T12:08:54.341Z,33.99
2022-08-26T12:14:25.601Z,34.08
2022-08-26T12:16:55.294Z,34.25
2022-08-26T12:19:27.499Z,34.26
2022-08-26T12:22:10.041Z,34.19
2022-08-26T12:24:45.401Z,34.26
2022-08-26T12:27:15.792Z,34.20
2022-08-26T12:29:44.081Z,34.20
2022-08-26T12:32:18.849Z,34.36
2022-08-26T12:44:19.972Z,34.27
2022-08-26T13:28:36.392Z,33.38
2022-08-26T13:40:26.153Z,33.67
2022-08-26T13:44:14.926Z,33.73
2022-08-26T13:49:51.221Z,33.62
2022-08-26T13:58:52.289Z,33.48
2022-08-26T14:58:10.736Z,32.69
2022-08-26T15:01:08.154Z,32.60
2022-08-26T15:07:07.078Z,32.20
2022-08-26T15:10:15.354Z,31.97
2022-08-26T15:16:35.888Z,31.69
2022-08-26T16:00:56.425Z,31.00
2022-08-26T16:03:24.111Z,30.87
2022-08-26T16:05:51.825Z,30.78
2022-08-26T16:08:19.354Z,30.77
2022-08-26T16:10:50.297Z,30.68
2022-08-26T16:39:40.258Z,29.76
2022-08-26T16:42:12.254Z,29.72
2022-08-26T16:44:44.748Z,29.67
2022-08-26T16:47:13.211Z,29.56
2022-08-26T16:49:40.779Z,29.52
2022-08-26T16:52:09.623Z,29.44
2022-08-26T16:54:37.058Z,29.35
2022-08-26T16:57:04.442Z,29.24
2022-08-26T16:59:33.101Z,29.18
2022-08-26T17:02:00.878Z,29.06
2022-08-26T17:04:28.842Z,28.97
2022-08-26T17:06:55.984Z,28.85
2022-08-26T17:09:22.822Z,28.79
2022-08-26T17:11:50.872Z,28.71
2022-08-26T17:14:18.821Z,28.62
2022-08-26T17:16:46.253Z,28.57
2022-08-26T17:19:13.142Z,28.47
2022-08-26T17:21:40.782Z,28.40
2022-08-26T17:24:07.893Z,28.29
2022-08-26T17:26:36.042Z,28.20
2022-08-26T17:29:03.063Z,28.09
2022-08-26T17:31:30.137Z,28.01
2022-08-26T17:33:57.146Z,27.90
2022-08-26T17:36:27.906Z,27.81
2022-08-26T17:38:56.417Z,27.70
2022-08-26T17:41:23.414Z,27.62
2022-08-26T17:43:51.053Z,27.54
2022-08-26T17:46:18.035Z,27.40
2022-08-26T17:48:46.923Z,27.31
2022-08-26T17:51:17.255Z,27.28
2022-08-26T17:53:44.189Z,27.16
2022-08-26T17:56:13.872Z,27.11
2022-08-26T17:58:47.442Z,26.85
2022-08-26T18:01:18.086Z,26.46
2022-08-26T18:03:45.061Z,26.57
2022-08-26T18:06:13.868Z,26.46
2022-08-26T18:08:41.745Z,26.41
2022-08-26T18:11:16.789Z,26.24
2022-08-26T18:13:47.384Z,26.07
2022-08-26T18:16:15.922Z,25.95
2022-08-26T18:18:43.305Z,25.88
2022-08-26T18:21:17.230Z,25.88
2022-08-26T18:23:45.901Z,25.74
2022-08-26T18:26:27.905Z,25.74
2022-08-26T18:28:55.375Z,25.64
2022-08-26T18:31:22.469Z,25.67
2022-08-26T18:33:50.180Z,25.70
2022-08-26T18:36:19.735Z,25.73
2022-08-26T18:38:47.908Z,25.72
2022-08-26T18:41:22.048Z,25.70
2022-08-26T18:43:52.078Z,25.70
2022-08-26T18:46:22.987Z,25.74
2022-08-26T18:48:51.018Z,25.73
2022-08-26T18:51:32.673Z,25.78
2022-08-26T18:54:01.579Z,25.77
2022-08-26T18:56:29.571Z,25.79
2022-08-26T18:59:00.087Z,25.78
2022-08-26T19:01:28.903Z,25.72
2022-08-26T19:04:01.434Z,25.68
2022-08-26T19:06:31.719Z,25.70
2022-08-26T19:08:59.735Z,25.67
2022-08-26T19:11:32.667Z,25.64
2022-08-26T19:14:07.533Z,25.64
2022-08-26T19:16:35.828Z,25.62
2022-08-26T19:19:03.522Z,25.43
2022-08-26T19:21:33.262Z,25.39
2022-08-26T19:24:02.872Z,25.36
2022-08-26T19:26:31.231Z,25.28
2022-08-26T19:28:58.951Z,25.25
2022-08-26T19:31:26.072Z,25.11
2022-08-26T19:33:53.312Z,25.07
2022-08-26T19:36:24.923Z,24.82
2022-08-26T19:38:53.471Z,24.76
2022-08-26T19:41:34.118Z,24.78
2022-08-26T19:44:10.364Z,24.81
2022-08-26T19:49:05.744Z,24.84
2022-08-26T19:51:34.886Z,24.87
2022-08-26T19:54:02.377Z,24.90
2022-08-26T19:56:30.085Z,24.91
2022-08-26T19:58:57.624Z,24.91
2022-08-26T20:01:25.274Z,24.89
2022-08-26T20:03:52.980Z,24.87
2022-08-26T20:06:20.495Z,24.92
2022-08-26T20:08:48.087Z,24.89
2022-08-26T20:11:18.954Z,24.84
2022-08-26T20:13:47.375Z,24.80
2022-08-26T20:16:15.284Z,24.78
2022-08-26T20:19:37.248Z,24.80
2022-08-26T20:22:20.735Z,24.75
2022-08-26T20:28:19.523Z,24.47
2022-08-26T20:30:48.454Z,24.34
2022-08-26T20:33:15.494Z,24.39
2022-08-26T20:41:28.113Z,24.19
2022-08-26T20:44:00.791Z,24.23
2022-08-26T20:46:31.363Z,24.24
2022-08-26T20:49:05.891Z,24.26
2022-08-26T21:04:50.645Z,24.22
2022-08-26T21:07:17.782Z,23.83
2022-08-26T21:12:20.267Z,23.67
2022-08-26T21:14:49.659Z,23.64
2022-08-26T21:17:17.409Z,23.84
2022-08-26T21:19:45.023Z,23.80
2022-08-26T21:22:13.112Z,23.82
2022-08-26T21:24:40.242Z,23.89
2022-08-26T21:27:07.728Z,23.90
2022-08-26T21:29:36.995Z,23.88
2022-08-26T21:32:12.500Z,23.87
2022-08-26T21:34:46.234Z,23.91
2022-08-26T21:37:16.321Z,23.92
2022-08-26T21:39:54.280Z,23.95
2022-08-26T21:42:21.775Z,23.96
2022-08-26T21:44:52.816Z,23.98
2022-08-26T21:47:23.392Z,23.98
2022-08-26T21:49:51.303Z,23.96
2022-08-26T21:52:18.503Z,23.99
2022-08-26T21:54:49.433Z,23.99
2022-08-26T21:57:18.486Z,24.04
2022-08-26T21:59:45.569Z,24.02
2022-08-26T22:02:13.551Z,23.94
2022-08-26T22:04:43.663Z,23.93
2022-08-26T22:07:14.074Z,23.87
2022-08-26T22:09:41.984Z,23.85
2022-08-26T22:12:12.597Z,23.86
2022-08-26T22:14:40.014Z,23.76
2022-08-26T22:17:07.225Z,23.70
2022-08-26T22:19:46.481Z,23.68
2022-08-26T22:22:15.752Z,23.63
2022-08-26T22:24:43.571Z,23.57
2022-08-26T22:27:12.124Z,23.53
2022-08-26T22:29:39.716Z,23.51
2022-08-26T22:32:06.928Z,23.56
2022-08-26T22:34:34.402Z,23.38
2022-08-26T22:37:03.285Z,23.43
2022-08-26T22:39:30.274Z,23.48
2022-08-26T22:41:57.509Z,23.47
2022-08-26T22:44:29.112Z,23.49
2022-08-26T22:46:56.263Z,23.46
2022-08-26T22:49:24.121Z,23.49
2022-08-26T22:51:51.364Z,23.44
2022-08-26T22:54:18.319Z,23.47
2022-08-26T22:56:45.655Z,23.48
2022-08-26T22:59:13.598Z,23.50
2022-08-26T23:01:42.575Z,23.52
2022-08-26T23:04:11.614Z,23.43
2022-08-26T23:06:51.885Z,23.42
2022-08-26T23:09:20.022Z,23.48
2022-08-26T23:11:49.482Z,23.41
2022-08-26T23:14:18.491Z,23.41
2022-08-26T23:16:45.632Z,23.32
2022-08-26T23:19:14.904Z,23.22
2022-08-26T23:21:42.018Z,23.08
2022-08-26T23:24:09.459Z,22.98
2022-08-26T23:26:38.056Z,22.96
2022-08-26T23:29:06.636Z,22.88
2022-08-26T23:31:34.188Z,22.92
2022-08-26T23:34:21.656Z,22.90
2022-08-26T23:36:53.860Z,22.84
2022-08-26T23:39:20.871Z,22.71
2022-08-26T23:41:47.809Z,22.69
2022-08-26T23:44:14.796Z,22.74
2022-08-26T23:46:41.787Z,22.77
2022-08-26T23:49:09.064Z,22.83
2022-08-26T23:51:54.402Z,22.89
2022-08-26T23:54:21.656Z,22.85
2022-08-26T23:56:48.887Z,22.64
2022-08-26T23:59:15.874Z,22.68
